Hippo, Kentucky
Current Conditions -  °F | °C
As of 11:15 AM on Wednesday 28 Jan 2015 (Local Time) from KSJS Reporting Station
Scattered Clouds Scattered Clouds  
Wind Chill: 26°   Ceiling: Unl
Heat Index: 26°   Visibility: 10mi
Dew Point: 18°   Wind: 3mph
Humidity: 71%   Direction: 120°ESE
Pressure: 30.36"   Gusts: NA
Location:  37.6405°N, 82.8256°W
Report Text: KSJS 281615Z AUTO 12003KT 10SM SCT017 M03/M08 A3036 RMK AO2 T10311077
Loading
Personal Weather Stations






























Interactive Weather Map New forecast layout! Learn more

10-Day Weather Forecast

Advertisements
Track Severe Weather on mobile